sensor_id;sensor_type;location;lat;lon;timestamp;temperature;humidity
2407;DHT22;37709;53.480;9.688;2022-09-03T00:02:01;13.10;99.90
2407;DHT22;37709;53.480;9.688;2022-09-03T00:07:20;13.10;99.90
2407;DHT22;37709;53.480;9.688;2022-09-03T00:09:52;13.10;99.90
2407;DHT22;37709;53.480;9.688;2022-09-03T00:12:28;13.00;99.90
2407;DHT22;37709;53.480;9.688;2022-09-03T00:20:14;13.10;99.90
2407;DHT22;37709;53.480;9.688;2022-09-03T00:22:47;13.00;99.90
2407;DHT22;37709;53.480;9.688;2022-09-03T00:25:38;13.00;99.90
2407;DHT22;37709;53.480;9.688;2022-09-03T00:28:13;12.90;99.90
2407;DHT22;37709;53.480;9.688;2022-09-03T00:30:45;12.80;99.90
2407;DHT22;37709;53.480;9.688;2022-09-03T00:33:21;12.80;99.90
2407;DHT22;37709;53.480;9.688;2022-09-03T00:36:05;12.70;99.90
2407;DHT22;37709;53.480;9.688;2022-09-03T00:38:37;12.60;99.90
2407;DHT22;37709;53.480;9.688;2022-09-03T00:41:21;12.60;99.90
2407;DHT22;37709;53.480;9.688;2022-09-03T00:44:29;12.60;99.90
2407;DHT22;37709;53.480;9.688;2022-09-03T00:46:52;12.50;99.90
2407;DHT22;37709;53.480;9.688;2022-09-03T00:49:36;12.30;99.90
2407;DHT22;37709;53.480;9.688;2022-09-03T00:52:23;12.30;99.90
2407;DHT22;37709;53.480;9.688;2022-09-03T00:55:21;12.40;99.90
2407;DHT22;37709;53.480;9.688;2022-09-03T01:00:53;12.20;99.90
2407;DHT22;37709;53.480;9.688;2022-09-03T01:11:45;12.10;99.90
2407;DHT22;37709;53.480;9.688;2022-09-03T01:27:00;11.90;99.90
2407;DHT22;37709;53.480;9.688;2022-09-03T01:31:49;11.70;99.90
2407;DHT22;37709;53.480;9.688;2022-09-03T01:37:20;11.60;99.90
2407;DHT22;37709;53.480;9.688;2022-09-03T01:45:39;11.60;99.90
2407;DHT22;37709;53.480;9.688;2022-09-03T01:48:43;11.60;99.90
2407;DHT22;37709;53.480;9.688;2022-09-03T01:56:37;11.40;99.90
2407;DHT22;37709;53.480;9.688;2022-09-03T02:02:02;11.30;99.90
2407;DHT22;37709;53.480;9.688;2022-09-03T02:04:33;11.30;99.90
2407;DHT22;37709;53.480;9.688;2022-09-03T02:07:01;11.30;99.90
2407;DHT22;37709;53.480;9.688;2022-09-03T02:09:29;11.20;99.90
2407;DHT22;37709;53.480;9.688;2022-09-03T02:12:12;11.10;99.90
2407;DHT22;37709;53.480;9.688;2022-09-03T02:14:40;11.10;99.90
2407;DHT22;37709;53.480;9.688;2022-09-03T02:17:09;11.10;99.90
2407;DHT22;37709;53.480;9.688;2022-09-03T02:19:37;11.00;99.90
2407;DHT22;37709;53.480;9.688;2022-09-03T02:22:05;11.00;99.90
2407;DHT22;37709;53.480;9.688;2022-09-03T02:24:33;10.90;99.90
2407;DHT22;37709;53.480;9.688;2022-09-03T02:27:02;11.00;99.90
2407;DHT22;37709;53.480;9.688;2022-09-03T02:29:30;10.90;99.90
2407;DHT22;37709;53.480;9.688;2022-09-03T02:31:59;10.90;99.90
2407;DHT22;37709;53.480;9.688;2022-09-03T02:34:27;10.90;99.90
2407;DHT22;37709;53.480;9.688;2022-09-03T02:36:55;11.00;99.90
2407;DHT22;37709;53.480;9.688;2022-09-03T02:39:22;11.00;99.90
2407;DHT22;37709;53.480;9.688;2022-09-03T02:41:53;11.00;99.90
2407;DHT22;37709;53.480;9.688;2022-09-03T02:44:30;10.90;99.90
2407;DHT22;37709;53.480;9.688;2022-09-03T02:47:05;10.90;99.90
2407;DHT22;37709;53.480;9.688;2022-09-03T02:49:34;10.90;99.90
2407;DHT22;37709;53.480;9.688;2022-09-03T02:52:05;10.90;99.90
2407;DHT22;37709;53.480;9.688;2022-09-03T02:54:33;10.90;99.90
2407;DHT22;37709;53.480;9.688;2022-09-03T02:57:02;10.80;99.90
2407;DHT22;37709;53.480;9.688;2022-09-03T02:59:30;10.70;99.90
2407;DHT22;37709;53.480;9.688;2022-09-03T03:01:58;10.60;99.90
2407;DHT22;37709;53.480;9.688;2022-09-03T03:04:31;10.40;99.90
2407;DHT22;37709;53.480;9.688;2022-09-03T03:06:59;10.40;99.90
2407;DHT22;37709;53.480;9.688;2022-09-03T03:09:26;10.40;99.90
2407;DHT22;37709;53.480;9.688;2022-09-03T03:11:54;10.40;99.90
2407;DHT22;37709;53.480;9.688;2022-09-03T03:14:21;10.30;99.90
2407;DHT22;37709;53.480;9.688;2022-09-03T03:16:50;10.30;99.90
2407;DHT22;37709;53.480;9.688;2022-09-03T03:19:18;10.10;99.90
2407;DHT22;37709;53.480;9.688;2022-09-03T03:21:45;10.00;99.90
2407;DHT22;37709;53.480;9.688;2022-09-03T03:24:13;10.00;99.90
2407;DHT22;37709;53.480;9.688;2022-09-03T03:26:41;10.00;99.90
2407;DHT22;37709;53.480;9.688;2022-09-03T03:29:14;10.00;99.90
2407;DHT22;37709;53.480;9.688;2022-09-03T03:31:42;9.90;99.90
2407;DHT22;37709;53.480;9.688;2022-09-03T03:34:10;9.80;99.90
2407;DHT22;37709;53.480;9.688;2022-09-03T03:36:37;9.70;99.90
2407;DHT22;37709;53.480;9.688;2022-09-03T03:39:05;9.70;99.90
2407;DHT22;37709;53.480;9.688;2022-09-03T03:41:34;9.70;99.90
2407;DHT22;37709;53.480;9.688;2022-09-03T03:44:04;9.70;99.90
2407;DHT22;37709;53.480;9.688;2022-09-03T03:46:38;9.70;99.90
2407;DHT22;37709;53.480;9.688;2022-09-03T03:49:07;9.70;99.90
2407;DHT22;37709;53.480;9.688;2022-09-03T03:51:37;9.60;99.90
2407;DHT22;37709;53.480;9.688;2022-09-03T03:54:05;9.60;99.90
2407;DHT22;37709;53.480;9.688;2022-09-03T03:56:33;9.60;99.90
2407;DHT22;37709;53.480;9.688;2022-09-03T03:59:02;9.60;99.90
2407;DHT22;37709;53.480;9.688;2022-09-03T04:01:29;9.70;99.90
2407;DHT22;37709;53.480;9.688;2022-09-03T04:03:58;9.60;99.90
2407;DHT22;37709;53.480;9.688;2022-09-03T04:06:27;9.60;99.90
2407;DHT22;37709;53.480;9.688;2022-09-03T04:08:55;9.60;99.90
2407;DHT22;37709;53.480;9.688;2022-09-03T04:11:23;9.60;99.90
2407;DHT22;37709;53.480;9.688;2022-09-03T04:13:51;9.70;99.90
2407;DHT22;37709;53.480;9.688;2022-09-03T04:16:21;9.70;99.90
2407;DHT22;37709;53.480;9.688;2022-09-03T04:18:50;9.70;99.90
2407;DHT22;37709;53.480;9.688;2022-09-03T04:21:21;9.70;99.90
2407;DHT22;37709;53.480;9.688;2022-09-03T04:23:51;9.70;99.90
2407;DHT22;37709;53.480;9.688;2022-09-03T04:26:21;9.70;99.90
2407;DHT22;37709;53.480;9.688;2022-09-03T04:28:49;9.70;99.90
2407;DHT22;37709;53.480;9.688;2022-09-03T04:31:19;9.70;99.90
2407;DHT22;37709;53.480;9.688;2022-09-03T04:33:47;9.60;99.90
2407;DHT22;37709;53.480;9.688;2022-09-03T04:36:17;9.60;99.90
2407;DHT22;37709;53.480;9.688;2022-09-03T04:39:09;9.60;99.90
2407;DHT22;37709;53.480;9.688;2022-09-03T04:41:37;9.50;99.90
2407;DHT22;37709;53.480;9.688;2022-09-03T04:44:04;9.50;99.90
2407;DHT22;37709;53.480;9.688;2022-09-03T04:46:33;9.50;99.90
2407;DHT22;37709;53.480;9.688;2022-09-03T04:49:00;9.60;99.90
2407;DHT22;37709;53.480;9.688;2022-09-03T04:51:28;9.60;99.90
2407;DHT22;37709;53.480;9.688;2022-09-03T04:54:00;9.50;99.90
2407;DHT22;37709;53.480;9.688;2022-09-03T04:56:33;9.50;99.90
2407;DHT22;37709;53.480;9.688;2022-09-03T04:59:07;9.60;99.90
2407;DHT22;37709;53.480;9.688;2022-09-03T05:01:37;9.50;99.90
2407;DHT22;37709;53.480;9.688;2022-09-03T05:04:07;9.50;99.90
2407;DHT22;37709;53.480;9.688;2022-09-03T05:06:35;9.50;99.90
2407;DHT22;37709;53.480;9.688;2022-09-03T05:09:04;9.60;99.90
2407;DHT22;37709;53.480;9.688;2022-09-03T05:11:32;9.70;99.90
2407;DHT22;37709;53.480;9.688;2022-09-03T05:14:00;9.70;99.90
2407;DHT22;37709;53.480;9.688;2022-09-03T05:16:28;9.80;99.90
2407;DHT22;37709;53.480;9.688;2022-09-03T05:18:58;9.80;99.90
2407;DHT22;37709;53.480;9.688;2022-09-03T05:21:28;9.90;99.90
2407;DHT22;37709;53.480;9.688;2022-09-03T05:23:59;10.10;99.90
2407;DHT22;37709;53.480;9.688;2022-09-03T05:26:30;10.10;99.90
2407;DHT22;37709;53.480;9.688;2022-09-03T05:29:00;10.20;99.90
2407;DHT22;37709;53.480;9.688;2022-09-03T05:31:29;10.30;99.90
2407;DHT22;37709;53.480;9.688;2022-09-03T05:34:01;10.30;99.90
2407;DHT22;37709;53.480;9.688;2022-09-03T05:36:31;10.40;99.90
2407;DHT22;37709;53.480;9.688;2022-09-03T05:39:00;10.40;99.90
2407;DHT22;37709;53.480;9.688;2022-09-03T05:41:29;10.50;99.90
2407;DHT22;37709;53.480;9.688;2022-09-03T05:47:00;10.80;99.90
2407;DHT22;37709;53.480;9.688;2022-09-03T05:49:29;10.90;99.90
2407;DHT22;37709;53.480;9.688;2022-09-03T05:51:58;10.90;99.90
2407;DHT22;37709;53.480;9.688;2022-09-03T05:54:26;11.00;99.90
2407;DHT22;37709;53.480;9.688;2022-09-03T05:56:54;11.10;99.90
2407;DHT22;37709;53.480;9.688;2022-09-03T05:59:21;11.20;99.90
2407;DHT22;37709;53.480;9.688;2022-09-03T06:01:48;11.30;99.90
2407;DHT22;37709;53.480;9.688;2022-09-03T06:04:21;11.40;99.90
2407;DHT22;37709;53.480;9.688;2022-09-03T06:06:49;11.50;99.90
2407;DHT22;37709;53.480;9.688;2022-09-03T06:09:18;11.60;99.90
2407;DHT22;37709;53.480;9.688;2022-09-03T06:11:47;11.70;99.90
2407;DHT22;37709;53.480;9.688;2022-09-03T06:14:17;11.80;99.90
2407;DHT22;37709;53.480;9.688;2022-09-03T06:16:46;11.80;99.90
2407;DHT22;37709;53.480;9.688;2022-09-03T06:19:16;11.90;99.90
2407;DHT22;37709;53.480;9.688;2022-09-03T06:21:44;12.00;99.90
2407;DHT22;37709;53.480;9.688;2022-09-03T06:24:20;12.10;99.90
2407;DHT22;37709;53.480;9.688;2022-09-03T06:26:57;12.20;99.90
2407;DHT22;37709;53.480;9.688;2022-09-03T06:29:25;12.50;99.90
2407;DHT22;37709;53.480;9.688;2022-09-03T06:31:53;12.70;99.90
2407;DHT22;37709;53.480;9.688;2022-09-03T06:34:26;12.90;99.90
2407;DHT22;37709;53.480;9.688;2022-09-03T06:36:54;13.10;99.90
2407;DHT22;37709;53.480;9.688;2022-09-03T06:39:22;13.30;99.90
2407;DHT22;37709;53.480;9.688;2022-09-03T06:41:49;13.50;99.90
2407;DHT22;37709;53.480;9.688;2022-09-03T06:44:25;13.80;99.90
2407;DHT22;37709;53.480;9.688;2022-09-03T06:46:52;14.30;99.90
2407;DHT22;37709;53.480;9.688;2022-09-03T06:49:20;14.90;99.90
2407;DHT22;37709;53.480;9.688;2022-09-03T06:51:48;15.70;99.90
2407;DHT22;37709;53.480;9.688;2022-09-03T06:54:15;16.80;99.90
2407;DHT22;37709;53.480;9.688;2022-09-03T06:56:44;18.00;98.00
2407;DHT22;37709;53.480;9.688;2022-09-03T06:59:13;19.10;94.80
2407;DHT22;37709;53.480;9.688;2022-09-03T07:01:42;20.00;92.90
2407;DHT22;37709;53.480;9.688;2022-09-03T07:04:13;20.50;91.50
2407;DHT22;37709;53.480;9.688;2022-09-03T07:06:43;21.10;89.70
2407;DHT22;37709;53.480;9.688;2022-09-03T07:09:14;21.50;86.50
2407;DHT22;37709;53.480;9.688;2022-09-03T07:11:44;21.90;83.50
2407;DHT22;37709;53.480;9.688;2022-09-03T07:14:17;22.00;81.90
2407;DHT22;37709;53.480;9.688;2022-09-03T07:16:48;22.00;80.40
2407;DHT22;37709;53.480;9.688;2022-09-03T07:19:16;22.30;79.30
2407;DHT22;37709;53.480;9.688;2022-09-03T07:21:44;22.80;79.30
2407;DHT22;37709;53.480;9.688;2022-09-03T07:24:22;23.10;75.90
2407;DHT22;37709;53.480;9.688;2022-09-03T07:26:51;23.10;75.60
2407;DHT22;37709;53.480;9.688;2022-09-03T07:29:18;23.30;74.80
2407;DHT22;37709;53.480;9.688;2022-09-03T07:31:48;23.60;73.30
2407;DHT22;37709;53.480;9.688;2022-09-03T07:34:18;23.80;72.40
2407;DHT22;37709;53.480;9.688;2022-09-03T07:36:48;24.20;71.20
2407;DHT22;37709;53.480;9.688;2022-09-03T07:39:18;24.70;69.90
2407;DHT22;37709;53.480;9.688;2022-09-03T07:41:46;25.30;67.70
2407;DHT22;37709;53.480;9.688;2022-09-03T07:44:18;25.60;65.90
2407;DHT22;37709;53.480;9.688;2022-09-03T07:46:47;25.80;65.80
2407;DHT22;37709;53.480;9.688;2022-09-03T07:49:18;25.60;64.00
2407;DHT22;37709;53.480;9.688;2022-09-03T07:51:47;25.60;64.20
2407;DHT22;37709;53.480;9.688;2022-09-03T07:54:18;26.20;63.40
2407;DHT22;37709;53.480;9.688;2022-09-03T07:56:47;26.10;61.50
2407;DHT22;37709;53.480;9.688;2022-09-03T07:59:15;26.20;62.50
2407;DHT22;37709;53.480;9.688;2022-09-03T08:01:43;26.50;60.10
2407;DHT22;37709;53.480;9.688;2022-09-03T08:04:10;26.70;60.10
2407;DHT22;37709;53.480;9.688;2022-09-03T08:06:42;27.20;59.00
2407;DHT22;37709;53.480;9.688;2022-09-03T08:09:11;27.30;58.20
2407;DHT22;37709;53.480;9.688;2022-09-03T08:11:42;27.70;57.10
2407;DHT22;37709;53.480;9.688;2022-09-03T08:14:12;28.00;56.50
2407;DHT22;37709;53.480;9.688;2022-09-03T08:16:42;27.70;55.00
2407;DHT22;37709;53.480;9.688;2022-09-03T08:19:10;27.80;56.10
2407;DHT22;37709;53.480;9.688;2022-09-03T08:21:40;28.10;55.10
2407;DHT22;37709;53.480;9.688;2022-09-03T08:24:15;28.50;55.00
2407;DHT22;37709;53.480;9.688;2022-09-03T08:26:43;28.50;53.50
2407;DHT22;37709;53.480;9.688;2022-09-03T08:29:18;29.20;53.70
2407;DHT22;37709;53.480;9.688;2022-09-03T08:31:46;30.00;52.00
2407;DHT22;37709;53.480;9.688;2022-09-03T08:34:14;29.10;50.80
2407;DHT22;37709;53.480;9.688;2022-09-03T08:36:45;28.40;51.60
2407;DHT22;37709;53.480;9.688;2022-09-03T08:39:39;27.30;53.10
2407;DHT22;37709;53.480;9.688;2022-09-03T08:45:06;28.40;51.70
2407;DHT22;37709;53.480;9.688;2022-09-03T08:47:47;29.00;51.10
2407;DHT22;37709;53.480;9.688;2022-09-03T08:50:46;28.90;50.10
2407;DHT22;37709;53.480;9.688;2022-09-03T08:53:24;28.20;52.00
2407;DHT22;37709;53.480;9.688;2022-09-03T08:56:06;29.00;51.30
2407;DHT22;37709;53.480;9.688;2022-09-03T08:58:35;30.50;50.00
2407;DHT22;37709;53.480;9.688;2022-09-03T09:12:38;32.00;46.00
2407;DHT22;37709;53.480;9.688;2022-09-03T09:15:31;32.60;44.30
2407;DHT22;37709;53.480;9.688;2022-09-03T09:20:48;31.30;45.10
2407;DHT22;37709;53.480;9.688;2022-09-03T09:23:45;31.00;45.30
2407;DHT22;37709;53.480;9.688;2022-09-03T09:26:19;31.10;45.70
2407;DHT22;37709;53.480;9.688;2022-09-03T09:28:56;31.20;45.20
2407;DHT22;37709;53.480;9.688;2022-09-03T09:31:27;32.30;44.70
2407;DHT22;37709;53.480;9.688;2022-09-03T09:34:04;33.50;43.00
2407;DHT22;37709;53.480;9.688;2022-09-03T09:36:44;33.70;42.30
2407;DHT22;37709;53.480;9.688;2022-09-03T09:39:13;33.00;41.40
2407;DHT22;37709;53.480;9.688;2022-09-03T09:42:07;33.00;41.10
2407;DHT22;37709;53.480;9.688;2022-09-03T09:44:40;33.30;41.30
2407;DHT22;37709;53.480;9.688;2022-09-03T09:47:23;34.70;40.20
2407;DHT22;37709;53.480;9.688;2022-09-03T09:52:21;35.20;38.00
2407;DHT22;37709;53.480;9.688;2022-09-03T09:54:53;35.10;38.70
2407;DHT22;37709;53.480;9.688;2022-09-03T09:57:31;35.20;37.90
2407;DHT22;37709;53.480;9.688;2022-09-03T10:02:39;35.00;36.90
2407;DHT22;37709;53.480;9.688;2022-09-03T10:05:24;34.70;37.30
2407;DHT22;37709;53.480;9.688;2022-09-03T10:07:57;33.60;37.90
2407;DHT22;37709;53.480;9.688;2022-09-03T10:10:25;34.10;38.70
2407;DHT22;37709;53.480;9.688;2022-09-03T10:13:25;35.00;37.10
2407;DHT22;37709;53.480;9.688;2022-09-03T10:16:02;34.80;36.40
2407;DHT22;37709;53.480;9.688;2022-09-03T10:18:42;34.80;36.00
2407;DHT22;37709;53.480;9.688;2022-09-03T10:21:17;35.30;35.70
2407;DHT22;37709;53.480;9.688;2022-09-03T10:23:55;35.50;35.80
2407;DHT22;37709;53.480;9.688;2022-09-03T10:26:24;36.60;35.50
2407;DHT22;37709;53.480;9.688;2022-09-03T10:29:02;37.20;34.70
2407;DHT22;37709;53.480;9.688;2022-09-03T10:31:42;37.80;33.30
2407;DHT22;37709;53.480;9.688;2022-09-03T10:37:09;35.20;35.20
2407;DHT22;37709;53.480;9.688;2022-09-03T10:40:05;36.70;34.70
2407;DHT22;37709;53.480;9.688;2022-09-03T10:43:29;37.60;33.80
2407;DHT22;37709;53.480;9.688;2022-09-03T10:46:09;37.50;32.70
2407;DHT22;37709;53.480;9.688;2022-09-03T10:51:42;35.00;34.00
2407;DHT22;37709;53.480;9.688;2022-09-03T11:00:09;32.90;38.80
2407;DHT22;37709;53.480;9.688;2022-09-03T11:03:09;35.60;36.80
2407;DHT22;37709;53.480;9.688;2022-09-03T11:05:59;38.20;34.10
2407;DHT22;37709;53.480;9.688;2022-09-03T11:08:30;37.90;32.20
2407;DHT22;37709;53.480;9.688;2022-09-03T11:11:15;38.40;31.80
2407;DHT22;37709;53.480;9.688;2022-09-03T11:13:55;39.30;31.50
2407;DHT22;37709;53.480;9.688;2022-09-03T11:16:31;37.50;30.10
2407;DHT22;37709;53.480;9.688;2022-09-03T11:19:04;37.70;30.30
2407;DHT22;37709;53.480;9.688;2022-09-03T11:21:35;38.60;29.90
2407;DHT22;37709;53.480;9.688;2022-09-03T11:24:21;39.20;29.80
2407;DHT22;37709;53.480;9.688;2022-09-03T11:26:56;38.60;29.60
2407;DHT22;37709;53.480;9.688;2022-09-03T11:32:08;37.30;31.70
2407;DHT22;37709;53.480;9.688;2022-09-03T11:37:31;38.10;30.40
2407;DHT22;37709;53.480;9.688;2022-09-03T11:40:05;37.30;30.00
2407;DHT22;37709;53.480;9.688;2022-09-03T11:42:40;36.90;30.00
2407;DHT22;37709;53.480;9.688;2022-09-03T11:47:55;35.30;31.00
2407;DHT22;37709;53.480;9.688;2022-09-03T11:50:26;36.90;30.40
2407;DHT22;37709;53.480;9.688;2022-09-03T11:58:38;37.20;29.20
2407;DHT22;37709;53.480;9.688;2022-09-03T12:01:14;38.30;29.00
2407;DHT22;37709;53.480;9.688;2022-09-03T12:03:57;40.00;28.90
2407;DHT22;37709;53.480;9.688;2022-09-03T12:15:13;38.90;28.10
2407;DHT22;37709;53.480;9.688;2022-09-03T12:17:53;39.30;27.30
2407;DHT22;37709;53.480;9.688;2022-09-03T12:20:43;40.00;27.00
2407;DHT22;37709;53.480;9.688;2022-09-03T12:23:12;40.10;26.70
2407;DHT22;37709;53.480;9.688;2022-09-03T12:25:44;40.20;27.20
2407;DHT22;37709;53.480;9.688;2022-09-03T12:28:21;40.10;26.30
2407;DHT22;37709;53.480;9.688;2022-09-03T12:30:52;41.30;26.60
2407;DHT22;37709;53.480;9.688;2022-09-03T12:33:21;41.70;25.80
2407;DHT22;37709;53.480;9.688;2022-09-03T12:35:56;41.30;26.40
2407;DHT22;37709;53.480;9.688;2022-09-03T12:38:26;40.60;25.20
2407;DHT22;37709;53.480;9.688;2022-09-03T12:40:54;39.50;26.20
2407;DHT22;37709;53.480;9.688;2022-09-03T12:43:50;40.10;26.40
2407;DHT22;37709;53.480;9.688;2022-09-03T12:46:21;38.90;26.60
2407;DHT22;37709;53.480;9.688;2022-09-03T12:49:04;39.90;26.60
2407;DHT22;37709;53.480;9.688;2022-09-03T12:52:01;40.60;25.60
2407;DHT22;37709;53.480;9.688;2022-09-03T12:54:34;40.60;25.50
2407;DHT22;37709;53.480;9.688;2022-09-03T12:57:03;41.00;26.10
2407;DHT22;37709;53.480;9.688;2022-09-03T12:59:34;40.90;24.90
2407;DHT22;37709;53.480;9.688;2022-09-03T13:02:12;41.00;25.30
2407;DHT22;37709;53.480;9.688;2022-09-03T13:04:45;41.10;25.20
2407;DHT22;37709;53.480;9.688;2022-09-03T13:07:30;40.80;25.30
2407;DHT22;37709;53.480;9.688;2022-09-03T13:10:03;39.40;26.30
2407;DHT22;37709;53.480;9.688;2022-09-03T13:12:44;38.20;25.90
2407;DHT22;37709;53.480;9.688;2022-09-03T13:15:23;35.40;28.60
2407;DHT22;37709;53.480;9.688;2022-09-03T13:38:14;34.30;29.50
2407;DHT22;37709;53.480;9.688;2022-09-03T13:40:57;33.30;29.70
2407;DHT22;37709;53.480;9.688;2022-09-03T13:43:39;31.50;32.00
2407;DHT22;37709;53.480;9.688;2022-09-03T13:46:15;32.30;31.60
2407;DHT22;37709;53.480;9.688;2022-09-03T13:48:44;34.70;30.00
2407;DHT22;37709;53.480;9.688;2022-09-03T13:51:39;35.80;28.30
2407;DHT22;37709;53.480;9.688;2022-09-03T13:54:37;35.70;28.60
2407;DHT22;37709;53.480;9.688;2022-09-03T13:57:53;35.80;28.10
2407;DHT22;37709;53.480;9.688;2022-09-03T14:00:33;36.20;28.50
2407;DHT22;37709;53.480;9.688;2022-09-03T14:03:40;36.40;28.70
2407;DHT22;37709;53.480;9.688;2022-09-03T14:09:32;35.20;28.70
2407;DHT22;37709;53.480;9.688;2022-09-03T14:15:03;35.20;28.60
2407;DHT22;37709;53.480;9.688;2022-09-03T14:20:22;35.80;29.00
2407;DHT22;37709;53.480;9.688;2022-09-03T14:23:25;35.30;28.90
2407;DHT22;37709;53.480;9.688;2022-09-03T14:25:56;34.40;29.40
2407;DHT22;37709;53.480;9.688;2022-09-03T14:31:00;33.70;30.00
2407;DHT22;37709;53.480;9.688;2022-09-03T14:33:54;33.80;31.10
2407;DHT22;37709;53.480;9.688;2022-09-03T14:36:40;33.80;30.10
2407;DHT22;37709;53.480;9.688;2022-09-03T14:42:14;31.60;32.10
2407;DHT22;37709;53.480;9.688;2022-09-03T14:51:22;29.30;34.20
2407;DHT22;37709;53.480;9.688;2022-09-03T15:11:17;28.80;35.60
2407;DHT22;37709;53.480;9.688;2022-09-03T15:14:34;28.70;35.50
2407;DHT22;37709;53.480;9.688;2022-09-03T15:19:41;27.80;36.60
2407;DHT22;37709;53.480;9.688;2022-09-03T15:28:36;26.60;38.40
2407;DHT22;37709;53.480;9.688;2022-09-03T15:36:53;26.70;38.20
2407;DHT22;37709;53.480;9.688;2022-09-03T15:39:27;26.40;38.40
2407;DHT22;37709;53.480;9.688;2022-09-03T15:41:59;26.50;38.80
2407;DHT22;37709;53.480;9.688;2022-09-03T15:44:44;26.20;39.60
2407;DHT22;37709;53.480;9.688;2022-09-03T15:47:36;26.20;39.60
2407;DHT22;37709;53.480;9.688;2022-09-03T15:50:38;26.30;39.70
2407;DHT22;37709;53.480;9.688;2022-09-03T15:53:34;26.10;39.60
2407;DHT22;37709;53.480;9.688;2022-09-03T15:59:11;26.00;40.50
2407;DHT22;37709;53.480;9.688;2022-09-03T16:04:37;25.50;41.40
2407;DHT22;37709;53.480;9.688;2022-09-03T16:07:17;25.30;41.00
2407;DHT22;37709;53.480;9.688;2022-09-03T16:13:13;25.10;42.10
2407;DHT22;37709;53.480;9.688;2022-09-03T16:15:50;25.20;42.60
2407;DHT22;37709;53.480;9.688;2022-09-03T16:18:45;25.00;42.00
2407;DHT22;37709;53.480;9.688;2022-09-03T16:24:46;24.90;42.30
2407;DHT22;37709;53.480;9.688;2022-09-03T16:27:06;24.80;42.60
2407;DHT22;37709;53.480;9.688;2022-09-03T16:29:37;24.50;42.10
2407;DHT22;37709;53.480;9.688;2022-09-03T16:32:21;24.60;43.70
2407;DHT22;37709;53.480;9.688;2022-09-03T16:41:08;24.20;43.60
2407;DHT22;37709;53.480;9.688;2022-09-03T16:44:01;24.00;43.90
2407;DHT22;37709;53.480;9.688;2022-09-03T16:52:03;23.30;43.50
2407;DHT22;37709;53.480;9.688;2022-09-03T16:55:06;23.20;43.80
2407;DHT22;37709;53.480;9.688;2022-09-03T16:58:01;23.20;44.30
2407;DHT22;37709;53.480;9.688;2022-09-03T17:12:23;22.50;46.10
2407;DHT22;37709;53.480;9.688;2022-09-03T17:14:57;22.30;46.70
2407;DHT22;37709;53.480;9.688;2022-09-03T17:20:19;22.00;47.40
2407;DHT22;37709;53.480;9.688;2022-09-03T17:23:23;21.80;47.10
2407;DHT22;37709;53.480;9.688;2022-09-03T17:26:01;21.70;46.80
2407;DHT22;37709;53.480;9.688;2022-09-03T17:36:26;20.90;48.00
2407;DHT22;37709;53.480;9.688;2022-09-03T17:42:03;20.60;49.00
2407;DHT22;37709;53.480;9.688;2022-09-03T17:44:57;20.50;49.40
2407;DHT22;37709;53.480;9.688;2022-09-03T17:47:54;20.30;49.90
2407;DHT22;37709;53.480;9.688;2022-09-03T17:50:30;20.10;50.00
2407;DHT22;37709;53.480;9.688;2022-09-03T17:53:03;20.00;50.60
2407;DHT22;37709;53.480;9.688;2022-09-03T17:55:44;19.80;51.00
2407;DHT22;37709;53.480;9.688;2022-09-03T17:58:33;19.60;51.40
2407;DHT22;37709;53.480;9.688;2022-09-03T18:03:56;19.20;52.90
2407;DHT22;37709;53.480;9.688;2022-09-03T18:09:36;19.00;53.60
2407;DHT22;37709;53.480;9.688;2022-09-03T18:12:14;18.80;53.50
2407;DHT22;37709;53.480;9.688;2022-09-03T18:15:08;18.60;53.90
2407;DHT22;37709;53.480;9.688;2022-09-03T18:17:58;18.50;54.10
2407;DHT22;37709;53.480;9.688;2022-09-03T18:20:27;18.50;54.50
2407;DHT22;37709;53.480;9.688;2022-09-03T18:26:46;18.10;55.60
2407;DHT22;37709;53.480;9.688;2022-09-03T18:29:49;18.00;55.70
2407;DHT22;37709;53.480;9.688;2022-09-03T18:32:38;17.90;55.70
2407;DHT22;37709;53.480;9.688;2022-09-03T18:35:29;17.80;56.30
2407;DHT22;37709;53.480;9.688;2022-09-03T18:38:25;17.50;56.50
2407;DHT22;37709;53.480;9.688;2022-09-03T18:54:10;17.00;58.50
2407;DHT22;37709;53.480;9.688;2022-09-03T18:57:47;16.90;59.10
2407;DHT22;37709;53.480;9.688;2022-09-03T19:01:04;16.70;59.30
2407;DHT22;37709;53.480;9.688;2022-09-03T19:07:08;16.30;60.80
2407;DHT22;37709;53.480;9.688;2022-09-03T19:12:54;16.20;61.00
2407;DHT22;37709;53.480;9.688;2022-09-03T19:22:09;15.90;61.90
2407;DHT22;37709;53.480;9.688;2022-09-03T19:25:09;15.80;63.10
2407;DHT22;37709;53.480;9.688;2022-09-03T19:28:16;15.70;63.00
2407;DHT22;37709;53.480;9.688;2022-09-03T19:37:12;15.50;63.50
2407;DHT22;37709;53.480;9.688;2022-09-03T19:40:09;15.40;64.00
2407;DHT22;37709;53.480;9.688;2022-09-03T19:43:24;15.30;64.80
2407;DHT22;37709;53.480;9.688;2022-09-03T19:49:50;15.10;65.30
2407;DHT22;37709;53.480;9.688;2022-09-03T19:53:01;15.00;65.30
2407;DHT22;37709;53.480;9.688;2022-09-03T19:55:53;15.00;65.70
2407;DHT22;37709;53.480;9.688;2022-09-03T19:58:44;15.00;66.00
2407;DHT22;37709;53.480;9.688;2022-09-03T20:01:36;14.90;66.00
2407;DHT22;37709;53.480;9.688;2022-09-03T20:04:38;14.80;66.50
2407;DHT22;37709;53.480;9.688;2022-09-03T20:07:26;14.70;67.20
2407;DHT22;37709;53.480;9.688;2022-09-03T20:10:15;14.70;67.70
2407;DHT22;37709;53.480;9.688;2022-09-03T20:15:46;14.50;68.00
2407;DHT22;37709;53.480;9.688;2022-09-03T20:21:16;14.50;68.50
2407;DHT22;37709;53.480;9.688;2022-09-03T20:29:16;14.30;69.20
2407;DHT22;37709;53.480;9.688;2022-09-03T20:34:35;14.30;69.60
2407;DHT22;37709;53.480;9.688;2022-09-03T20:37:16;14.30;69.60
2407;DHT22;37709;53.480;9.688;2022-09-03T20:48:06;14.30;70.40
2407;DHT22;37709;53.480;9.688;2022-09-03T20:50:43;14.20;70.60
2407;DHT22;37709;53.480;9.688;2022-09-03T20:55:50;14.10;71.30
2407;DHT22;37709;53.480;9.688;2022-09-03T20:58:36;14.00;71.50
2407;DHT22;37709;53.480;9.688;2022-09-03T21:01:19;14.20;71.70
2407;DHT22;37709;53.480;9.688;2022-09-03T21:03:58;14.10;72.10
2407;DHT22;37709;53.480;9.688;2022-09-03T21:12:02;13.90;72.80
2407;DHT22;37709;53.480;9.688;2022-09-03T21:14:50;13.90;73.40
2407;DHT22;37709;53.480;9.688;2022-09-03T21:17:39;13.80;73.40
2407;DHT22;37709;53.480;9.688;2022-09-03T21:20:30;13.90;73.90
2407;DHT22;37709;53.480;9.688;2022-09-03T21:25:44;13.90;73.90
2407;DHT22;37709;53.480;9.688;2022-09-03T21:28:35;13.90;74.10
2407;DHT22;37709;53.480;9.688;2022-09-03T21:31:25;13.90;74.60
2407;DHT22;37709;53.480;9.688;2022-09-03T21:34:03;13.90;75.10
2407;DHT22;37709;53.480;9.688;2022-09-03T21:36:34;14.00;74.80
2407;DHT22;37709;53.480;9.688;2022-09-03T21:39:18;14.00;75.00
2407;DHT22;37709;53.480;9.688;2022-09-03T21:47:13;13.90;75.50
2407;DHT22;37709;53.480;9.688;2022-09-03T21:52:19;14.00;76.60
2407;DHT22;37709;53.480;9.688;2022-09-03T21:54:48;13.90;76.60
2407;DHT22;37709;53.480;9.688;2022-09-03T21:57:31;13.90;76.90
2407;DHT22;37709;53.480;9.688;2022-09-03T22:00:10;13.90;77.50
2407;DHT22;37709;53.480;9.688;2022-09-03T22:02:40;13.80;78.60
2407;DHT22;37709;53.480;9.688;2022-09-03T22:05:08;13.70;79.20
2407;DHT22;37709;53.480;9.688;2022-09-03T22:10:33;13.60;80.00